createdAt,value
2019-03-10T00:02:16.665Z,12.80
2019-03-10T00:04:45.910Z,10.37
2019-03-10T00:07:15.206Z,15.77
2019-03-10T00:09:44.445Z,16.30
2019-03-10T00:12:13.691Z,13.40
2019-03-10T00:14:42.922Z,16.67
2019-03-10T00:17:12.180Z,10.07
2019-03-10T00:19:41.445Z,8.03
2019-03-10T00:22:10.667Z,13.33
2019-03-10T00:24:39.940Z,13.23
2019-03-10T00:27:09.163Z,9.97
2019-03-10T00:29:39.988Z,9.20
2019-03-10T00:32:09.134Z,15.37
2019-03-10T00:34:38.339Z,11.37
2019-03-10T00:37:07.753Z,11.27
2019-03-10T00:40:31.246Z,13.40
2019-03-10T00:43:34.920Z,13.33
2019-03-10T00:46:47.203Z,13.77
2019-03-10T00:49:46.855Z,16.43
2019-03-10T00:52:22.795Z,15.27
2019-03-10T00:54:51.981Z,13.70
2019-03-10T00:57:21.150Z,14.53
2019-03-10T00:59:50.552Z,17.50
2019-03-10T01:02:19.782Z,14.27
2019-03-10T01:04:49.215Z,13.07
2019-03-10T01:07:18.460Z,12.20
2019-03-10T01:09:47.643Z,19.53
2019-03-10T01:12:16.877Z,15.47
2019-03-10T01:14:46.146Z,22.03
2019-03-10T01:17:15.696Z,16.23
2019-03-10T01:19:45.144Z,24.23
2019-03-10T01:22:14.427Z,19.20
2019-03-10T01:24:43.812Z,24.93
2019-03-10T01:27:12.976Z,24.60
2019-03-10T01:29:42.181Z,15.73
2019-03-10T01:33:04.629Z,18.97
2019-03-10T01:35:37.228Z,23.07
2019-03-10T01:38:06.535Z,25.53
2019-03-10T01:40:35.810Z,25.53
2019-03-10T01:43:04.965Z,21.10
2019-03-10T01:45:34.287Z,30.17
2019-03-10T01:48:03.525Z,28.07
2019-03-10T01:50:32.776Z,24.50
2019-03-10T01:53:02.027Z,27.83
2019-03-10T01:55:31.383Z,26.03
2019-03-10T01:58:00.555Z,26.00
2019-03-10T02:00:29.795Z,30.10
2019-03-10T02:02:58.979Z,24.33
2019-03-10T02:05:28.147Z,31.30
2019-03-10T02:07:57.451Z,20.43
2019-03-10T02:10:26.611Z,32.67
2019-03-10T02:12:55.974Z,25.23
2019-03-10T02:15:25.207Z,26.97
2019-03-10T02:17:54.460Z,25.20
2019-03-10T02:20:23.893Z,23.23
2019-03-10T02:22:53.227Z,22.33
2019-03-10T02:25:22.459Z,22.83
2019-03-10T02:27:51.743Z,30.47
2019-03-10T02:30:20.980Z,20.90
2019-03-10T02:32:50.300Z,22.23
2019-03-10T02:35:19.550Z,28.43
2019-03-10T02:37:48.749Z,28.90
2019-03-10T02:40:17.913Z,25.83
2019-03-10T02:42:47.229Z,31.03
2019-03-10T02:45:16.456Z,26.57
2019-03-10T02:47:45.728Z,26.77
2019-03-10T02:50:15.260Z,22.43
2019-03-10T02:52:44.518Z,26.83
2019-03-10T02:55:13.732Z,32.60
2019-03-10T02:57:43.002Z,27.40
2019-03-10T03:00:12.454Z,30.20
2019-03-10T03:02:41.708Z,23.43
2019-03-10T03:05:11.142Z,26.33
2019-03-10T03:07:40.391Z,32.83
2019-03-10T03:10:11.256Z,25.00
2019-03-10T03:12:40.436Z,33.93
2019-03-10T03:15:10.192Z,23.53
2019-03-10T03:17:39.488Z,20.53
2019-03-10T03:20:09.610Z,23.23
2019-03-10T03:22:38.914Z,29.07
2019-03-10T03:25:08.935Z,28.30
2019-03-10T03:27:38.317Z,25.73
2019-03-10T03:30:08.362Z,23.63
2019-03-10T03:32:37.667Z,26.57
2019-03-10T03:35:57.177Z,26.90
2019-03-10T03:38:35.697Z,28.57
2019-03-10T03:41:07.900Z,20.77
2019-03-10T03:43:37.126Z,31.57
2019-03-10T03:46:06.369Z,25.63
2019-03-10T03:48:35.684Z,26.67
2019-03-10T03:51:05.057Z,20.97
2019-03-10T03:53:34.256Z,26.07
2019-03-10T03:56:03.512Z,22.27
2019-03-10T03:58:32.829Z,23.07
2019-03-10T04:01:11.912Z,29.20
2019-03-10T04:03:41.132Z,21.07
2019-03-10T04:06:10.387Z,24.40
2019-03-10T04:08:39.621Z,25.73
2019-03-10T04:11:08.867Z,23.37
2019-03-10T04:13:38.093Z,17.20
2019-03-10T04:16:07.280Z,24.00
2019-03-10T04:18:36.427Z,20.47
2019-03-10T04:21:05.694Z,21.20
2019-03-10T04:23:34.984Z,20.23
2019-03-10T04:26:04.289Z,25.83
2019-03-10T04:28:33.500Z,20.50
2019-03-10T04:31:02.769Z,26.40
2019-03-10T04:33:32.001Z,28.33
2019-03-10T04:36:01.299Z,27.77
2019-03-10T04:38:30.519Z,27.43
2019-03-10T04:40:59.708Z,29.23
2019-03-10T04:43:28.936Z,21.57
2019-03-10T04:45:58.128Z,24.70
2019-03-10T04:48:27.436Z,25.63
2019-03-10T04:50:56.692Z,29.53
2019-03-10T04:53:25.958Z,31.63
2019-03-10T04:56:29.566Z,24.67
2019-03-10T04:58:58.823Z,37.07
2019-03-10T05:01:28.083Z,22.33
2019-03-10T05:03:57.304Z,24.40
2019-03-10T05:06:26.532Z,22.03
2019-03-10T05:08:55.704Z,28.87
2019-03-10T05:11:24.968Z,22.73
2019-03-10T05:13:54.128Z,21.43
2019-03-10T05:16:23.451Z,19.57
2019-03-10T05:18:52.679Z,24.20
2019-03-10T05:21:21.859Z,21.57
2019-03-10T05:23:51.019Z,34.43
2019-03-10T05:26:20.230Z,30.03
2019-03-10T05:28:49.657Z,22.87
2019-03-10T05:31:18.899Z,26.70
2019-03-10T05:33:48.114Z,23.07
2019-03-10T05:36:17.274Z,31.20
2019-03-10T05:38:46.442Z,21.63
2019-03-10T05:41:15.667Z,24.77
2019-03-10T05:43:44.856Z,22.10
2019-03-10T05:46:14.084Z,21.83
2019-03-10T05:48:43.360Z,18.43
2019-03-10T05:51:12.641Z,22.80
2019-03-10T05:53:41.824Z,19.30
2019-03-10T05:56:11.064Z,17.57
2019-03-10T05:58:40.391Z,29.37
2019-03-10T06:01:09.552Z,16.63
2019-03-10T06:03:38.808Z,20.37
2019-03-10T06:06:08.126Z,20.57
2019-03-10T06:08:37.315Z,17.90
2019-03-10T06:11:06.472Z,15.00
2019-03-10T06:13:35.740Z,13.53
2019-03-10T06:16:05.091Z,11.33
2019-03-10T06:18:34.311Z,17.37
2019-03-10T06:21:03.473Z,11.47
2019-03-10T06:23:32.726Z,16.20
2019-03-10T06:26:01.885Z,17.00
2019-03-10T06:28:31.207Z,17.03
2019-03-10T06:31:00.437Z,14.17
2019-03-10T06:33:29.706Z,19.27
2019-03-10T06:35:58.971Z,12.70
2019-03-10T06:38:28.202Z,17.57
2019-03-10T06:40:57.459Z,14.27
2019-03-10T06:43:26.763Z,16.53
2019-03-10T06:45:56.025Z,14.27
2019-03-10T06:48:25.327Z,10.40
2019-03-10T06:50:54.711Z,16.30
2019-03-10T06:53:23.934Z,15.60
2019-03-10T06:55:53.120Z,11.83
2019-03-10T06:58:22.273Z,12.20
2019-03-10T07:00:51.452Z,12.33
2019-03-10T07:03:20.607Z,16.20
2019-03-10T07:05:49.863Z,12.53
2019-03-10T07:08:21.372Z,11.40
2019-03-10T07:10:50.619Z,15.40
2019-03-10T07:13:19.844Z,17.23
2019-03-10T07:15:49.111Z,15.70
2019-03-10T07:18:18.335Z,12.33
2019-03-10T07:20:47.582Z,13.93
2019-03-10T07:23:18.083Z,16.67
2019-03-10T07:25:49.004Z,12.90
2019-03-10T07:28:31.635Z,13.10
2019-03-10T07:31:13.963Z,11.53
2019-03-10T07:33:51.656Z,11.03
2019-03-10T07:36:30.896Z,13.93
2019-03-10T07:39:37.516Z,13.30
2019-03-10T07:42:25.734Z,13.77
2019-03-10T07:45:10.959Z,11.33
2019-03-10T07:47:49.108Z,10.17
2019-03-10T07:50:34.613Z,11.83
2019-03-10T07:53:31.870Z,9.37
2019-03-10T07:56:22.879Z,11.37
2019-03-10T07:59:10.092Z,11.23
2019-03-10T08:01:46.208Z,9.47
2019-03-10T08:04:52.524Z,8.20
2019-03-10T08:07:36.116Z,11.97
2019-03-10T08:10:19.925Z,9.67
2019-03-10T08:13:00.643Z,10.90
2019-03-10T08:15:52.422Z,13.27
2019-03-10T08:18:34.138Z,5.80
2019-03-10T08:21:37.792Z,11.53
2019-03-10T08:24:22.492Z,9.30
2019-03-10T08:27:10.774Z,14.67
2019-03-10T08:29:58.140Z,9.13
2019-03-10T08:32:52.605Z,13.07
2019-03-10T08:35:43.622Z,10.97
2019-03-10T08:38:40.887Z,14.73
2019-03-10T08:41:29.074Z,7.77
2019-03-10T08:44:32.639Z,9.07
2019-03-10T08:47:07.590Z,5.77
2019-03-10T08:49:45.481Z,5.50
2019-03-10T08:52:21.388Z,7.03
2019-03-10T08:55:09.568Z,4.47
2019-03-10T08:57:48.208Z,5.33
2019-03-10T09:00:31.207Z,6.03
2019-03-10T09:03:11.993Z,8.90
2019-03-10T09:06:09.544Z,3.80
2019-03-10T09:09:06.916Z,6.73
2019-03-10T09:12:07.251Z,7.80
2019-03-10T09:14:49.452Z,7.47
2019-03-10T09:17:28.644Z,9.07
2019-03-10T09:20:16.860Z,6.87
2019-03-10T09:23:01.925Z,6.10
2019-03-10T09:25:59.480Z,7.63
2019-03-10T09:28:47.688Z,6.33
2019-03-10T09:31:34.595Z,9.60
2019-03-10T09:34:17.106Z,5.80
2019-03-10T09:37:02.460Z,11.27
2019-03-10T09:39:35.771Z,7.73
2019-03-10T09:42:22.729Z,6.50
2019-03-10T09:45:03.800Z,7.33
2019-03-10T09:47:54.755Z,9.23
2019-03-10T09:50:45.972Z,5.60
2019-03-10T09:53:32.826Z,5.50
2019-03-10T09:56:20.019Z,8.03
2019-03-10T09:59:20.591Z,8.63
2019-03-10T10:02:07.838Z,6.03
2019-03-10T10:05:05.272Z,4.00
2019-03-10T10:07:54.160Z,3.00
2019-03-10T10:10:45.203Z,4.37
2019-03-10T10:13:29.719Z,5.07
2019-03-10T10:16:27.241Z,4.70
2019-03-10T10:19:14.415Z,5.43
2019-03-10T10:22:01.435Z,3.40
2019-03-10T10:24:52.427Z,5.53
2019-03-10T10:27:43.399Z,5.20
2019-03-10T10:30:30.733Z,5.10
2019-03-10T10:33:18.095Z,4.13
2019-03-10T10:36:01.650Z,5.87
2019-03-10T10:38:52.912Z,5.03
2019-03-10T10:41:34.844Z,3.40
2019-03-10T10:44:23.033Z,3.70
2019-03-10T10:47:07.535Z,3.83
2019-03-10T10:49:55.764Z,3.20
2019-03-10T10:52:44.004Z,3.77
2019-03-10T10:55:40.234Z,3.63
2019-03-10T10:58:28.500Z,3.70
2019-03-10T11:01:21.255Z,3.50
2019-03-10T11:04:08.034Z,3.37
2019-03-10T11:07:02.096Z,3.23
2019-03-10T11:09:56.080Z,3.63
2019-03-10T11:12:56.398Z,3.93
2019-03-10T11:15:35.040Z,4.00
2019-03-10T11:18:21.958Z,3.30
2019-03-10T11:21:01.487Z,5.60
2019-03-10T11:23:49.708Z,2.63
2019-03-10T11:26:27.323Z,3.47
2019-03-10T11:29:24.952Z,2.60
2019-03-10T11:32:13.161Z,4.03
2019-03-10T11:34:58.003Z,3.87
2019-03-10T11:37:46.302Z,3.17
2019-03-10T11:40:32.939Z,2.73
2019-03-10T11:43:22.604Z,2.90
2019-03-10T11:46:25.364Z,3.27
2019-03-10T11:49:03.403Z,3.70
2019-03-10T11:52:03.639Z,8.10
2019-03-10T11:54:54.631Z,6.73
2019-03-10T11:57:32.132Z,12.77
2019-03-10T12:00:19.482Z,4.90
2019-03-10T12:03:02.799Z,7.53
2019-03-10T12:05:47.335Z,8.03
2019-03-10T12:08:22.549Z,3.50
2019-03-10T12:10:51.776Z,9.57
2019-03-10T12:13:21.991Z,8.77
2019-03-10T12:15:51.226Z,8.63
2019-03-10T12:18:20.565Z,5.67
2019-03-10T12:20:49.861Z,8.87
2019-03-10T12:23:19.110Z,7.47
2019-03-10T12:25:48.353Z,7.27
2019-03-10T12:28:17.626Z,3.57
2019-03-10T12:30:46.875Z,6.77
2019-03-10T12:33:16.100Z,5.63
2019-03-10T12:35:46.399Z,5.03
2019-03-10T12:38:15.652Z,4.57
2019-03-10T12:40:44.895Z,4.13
2019-03-10T12:43:14.049Z,4.57
2019-03-10T12:45:43.303Z,5.30
2019-03-10T12:48:12.462Z,4.07
2019-03-10T12:50:41.716Z,4.20
2019-03-10T12:53:10.953Z,4.60
2019-03-10T12:55:40.278Z,4.77
2019-03-10T12:58:09.506Z,7.93
2019-03-10T13:00:38.787Z,8.37
2019-03-10T13:03:08.079Z,10.37
2019-03-10T13:05:37.430Z,6.83
2019-03-10T13:08:06.692Z,7.50
2019-03-10T13:10:36.039Z,8.57
2019-03-10T13:13:05.301Z,6.57
2019-03-10T13:15:34.560Z,5.47
2019-03-10T13:18:04.672Z,7.63
2019-03-10T13:20:34.114Z,8.57
2019-03-10T13:23:03.526Z,7.53
2019-03-10T13:25:32.798Z,5.17
2019-03-10T13:28:02.038Z,5.70
2019-03-10T13:30:31.319Z,8.03
2019-03-10T13:33:00.488Z,4.97
2019-03-10T13:35:29.703Z,8.07
2019-03-10T13:37:58.940Z,6.90
2019-03-10T13:40:28.135Z,8.10
2019-03-10T13:42:57.439Z,5.57
2019-03-10T13:45:26.619Z,7.43
2019-03-10T13:47:55.881Z,9.03
2019-03-10T13:50:25.140Z,7.30
2019-03-10T13:52:54.470Z,6.10
2019-03-10T13:55:23.800Z,6.17
2019-03-10T13:57:53.231Z,6.67
2019-03-10T14:00:23.990Z,6.60
2019-03-10T14:02:53.419Z,5.00
2019-03-10T14:05:22.643Z,6.67
2019-03-10T14:07:51.899Z,9.70
2019-03-10T14:10:21.124Z,7.43
2019-03-10T14:12:50.310Z,7.33
2019-03-10T14:15:19.621Z,5.83
2019-03-10T14:17:48.952Z,5.87
2019-03-10T14:20:18.119Z,7.23
2019-03-10T14:22:47.369Z,5.20
2019-03-10T14:25:16.935Z,8.17
2019-03-10T14:27:46.195Z,6.03
2019-03-10T14:30:16.456Z,12.03
2019-03-10T14:32:45.757Z,8.27
2019-03-10T14:35:15.427Z,9.23
2019-03-10T14:37:44.686Z,9.00
2019-03-10T14:40:14.577Z,9.63
2019-03-10T14:42:43.839Z,10.20
2019-03-10T14:45:13.805Z,9.27
2019-03-10T14:47:43.059Z,11.43
2019-03-10T14:50:12.980Z,9.40
2019-03-10T14:52:42.312Z,10.40
2019-03-10T14:55:12.489Z,10.27
2019-03-10T14:57:41.861Z,11.60
2019-03-10T15:00:14.668Z,16.37
2019-03-10T15:02:43.895Z,21.50
2019-03-10T15:05:13.163Z,31.50
2019-03-10T15:07:42.345Z,8.10
2019-03-10T15:10:12.407Z,9.97
2019-03-10T15:12:41.644Z,7.17
2019-03-10T15:15:21.574Z,6.67
2019-03-10T15:17:44.764Z,5.40
2019-03-10T15:20:14.076Z,5.97
2019-03-10T15:22:43.294Z,8.53
2019-03-10T15:25:12.954Z,8.70
2019-03-10T15:27:42.176Z,6.00
2019-03-10T15:30:14.507Z,7.97
2019-03-10T15:32:43.744Z,5.30
2019-03-10T15:35:15.670Z,2.60
2019-03-10T15:37:45.090Z,3.93
2019-03-10T15:40:14.881Z,4.80
2019-03-10T15:42:44.105Z,5.37
2019-03-10T15:45:14.111Z,2.83
2019-03-10T15:47:43.363Z,4.30
2019-03-10T15:50:18.337Z,3.33
2019-03-10T15:52:47.653Z,2.60
2019-03-10T15:55:17.136Z,4.60
2019-03-10T15:57:50.409Z,3.53
2019-03-10T16:00:18.455Z,2.73
2019-03-10T16:02:47.703Z,5.57
2019-03-10T16:05:16.968Z,2.07
2019-03-10T16:07:46.222Z,2.73
2019-03-10T16:10:16.145Z,6.47
2019-03-10T16:12:45.369Z,2.93
2019-03-10T16:15:15.194Z,2.03
2019-03-10T16:17:45.942Z,4.87
2019-03-10T16:20:15.468Z,1.20
2019-03-10T16:22:44.679Z,1.80
2019-03-10T16:25:14.026Z,3.00
2019-03-10T16:27:43.195Z,2.37
2019-03-10T16:30:14.940Z,4.00
2019-03-10T16:32:44.194Z,6.13
2019-03-10T16:35:13.916Z,4.40
2019-03-10T16:37:43.217Z,4.27
2019-03-10T16:40:13.899Z,3.60
2019-03-10T16:42:43.103Z,3.23
2019-03-10T16:45:15.064Z,3.60
2019-03-10T16:47:44.345Z,6.73
2019-03-10T16:50:15.279Z,2.07
2019-03-10T16:52:44.462Z,3.83
2019-03-10T16:55:13.769Z,6.10
2019-03-10T16:57:42.946Z,5.23
2019-03-10T17:00:12.690Z,2.53
2019-03-10T17:02:43.161Z,3.63
2019-03-10T17:05:15.542Z,3.43
2019-03-10T17:07:44.025Z,4.93
2019-03-10T17:10:13.999Z,3.00
2019-03-10T17:12:43.171Z,3.47
2019-03-10T17:15:14.096Z,4.37
2019-03-10T17:17:43.263Z,4.30
2019-03-10T17:20:13.444Z,4.40
2019-03-10T17:22:42.630Z,2.97
2019-03-10T17:25:12.087Z,2.80
2019-03-10T17:27:41.424Z,3.60
2019-03-10T17:30:13.917Z,1.33
2019-03-10T17:32:43.207Z,5.13
2019-03-10T17:35:12.564Z,3.47
2019-03-10T17:37:41.816Z,4.53
2019-03-10T17:40:13.782Z,3.43
2019-03-10T17:42:43.104Z,5.10
2019-03-10T17:45:14.294Z,2.80
2019-03-10T17:47:43.527Z,2.43
2019-03-10T17:50:12.779Z,2.80
2019-03-10T17:52:41.995Z,4.50
2019-03-10T17:55:11.280Z,3.10
2019-03-10T17:57:40.638Z,1.27
2019-03-10T18:00:11.449Z,1.90
2019-03-10T18:02:40.671Z,1.20
2019-03-10T18:05:10.099Z,1.93
2019-03-10T18:07:39.327Z,1.67
2019-03-10T18:10:09.771Z,1.23
2019-03-10T18:12:39.023Z,1.53
2019-03-10T18:15:09.693Z,2.47
2019-03-10T18:17:38.983Z,1.50
2019-03-10T18:20:10.855Z,1.73
2019-03-10T18:22:41.590Z,2.10
2019-03-10T18:25:11.699Z,1.30
2019-03-10T18:27:40.876Z,0.73
2019-03-10T18:30:13.059Z,1.50
2019-03-10T18:32:42.291Z,1.97
2019-03-10T18:35:11.637Z,1.93
2019-03-10T18:37:40.887Z,2.93
2019-03-10T18:40:13.339Z,5.47
2019-03-10T18:42:42.508Z,4.60
2019-03-10T18:45:13.369Z,3.93
2019-03-10T18:47:42.621Z,7.80
2019-03-10T18:50:12.528Z,26.90
2019-03-10T18:52:41.755Z,7.97
2019-03-10T18:55:11.579Z,2.20
2019-03-10T18:57:40.832Z,26.43
2019-03-10T19:00:13.907Z,8.10
2019-03-10T19:02:43.160Z,2.87
2019-03-10T19:05:12.468Z,6.43
2019-03-10T19:07:41.726Z,6.33
2019-03-10T19:10:11.152Z,6.47
2019-03-10T19:12:40.338Z,3.87
2019-03-10T19:15:11.308Z,3.57
2019-03-10T19:17:40.565Z,3.23
2019-03-10T19:20:10.497Z,3.77
2019-03-10T19:22:39.672Z,1.50
2019-03-10T19:25:09.523Z,3.90
2019-03-10T19:27:38.780Z,3.07
2019-03-10T19:30:09.564Z,2.10
2019-03-10T19:32:38.754Z,2.37
2019-03-10T19:35:08.023Z,2.43
2019-03-10T19:37:37.282Z,2.87
2019-03-10T19:40:07.759Z,2.70
2019-03-10T19:42:37.036Z,4.33
2019-03-10T19:45:06.770Z,2.93
2019-03-10T19:47:36.096Z,6.80
2019-03-10T19:50:05.767Z,3.90
2019-03-10T19:52:35.145Z,4.40
2019-03-10T19:55:05.296Z,4.67
2019-03-10T19:57:34.627Z,3.67
2019-03-10T20:00:04.008Z,8.70
2019-03-10T20:02:33.275Z,5.23
2019-03-10T20:05:02.523Z,8.13
2019-03-10T20:07:31.755Z,4.40
2019-03-10T20:10:01.023Z,4.43
2019-03-10T20:12:30.251Z,2.90
2019-03-10T20:14:59.613Z,6.17
2019-03-10T20:17:28.853Z,3.47
2019-03-10T20:19:58.049Z,7.80
2019-03-10T20:22:27.274Z,7.47
2019-03-10T20:24:56.518Z,8.27
2019-03-10T20:27:25.667Z,4.63
2019-03-10T20:29:54.928Z,4.70
2019-03-10T20:32:24.307Z,3.73
2019-03-10T20:34:53.643Z,5.60
2019-03-10T20:37:22.935Z,2.70
2019-03-10T20:39:52.196Z,5.93
2019-03-10T20:42:21.460Z,2.50
2019-03-10T20:44:50.669Z,2.30
2019-03-10T20:47:19.829Z,2.80
2019-03-10T20:49:49.592Z,3.07
2019-03-10T20:52:18.847Z,3.33
2019-03-10T20:54:48.107Z,4.23
2019-03-10T20:57:17.251Z,2.90
2019-03-10T20:59:46.520Z,3.00
2019-03-10T21:02:15.836Z,3.83
2019-03-10T21:04:45.099Z,4.30
2019-03-10T21:07:14.250Z,5.30
2019-03-10T21:09:43.583Z,10.43
2019-03-10T21:12:12.840Z,6.23
2019-03-10T21:14:42.071Z,5.13
2019-03-10T21:17:11.400Z,5.07
2019-03-10T21:19:40.753Z,6.07
2019-03-10T21:22:10.210Z,4.47
2019-03-10T21:24:39.526Z,5.07
2019-03-10T21:27:08.811Z,4.80
2019-03-10T21:29:38.044Z,5.63
2019-03-10T21:32:07.219Z,4.50
2019-03-10T21:34:36.367Z,7.97
2019-03-10T21:37:05.583Z,4.50
2019-03-10T21:39:35.140Z,5.07
2019-03-10T21:42:04.579Z,7.23
2019-03-10T21:44:33.767Z,6.10
2019-03-10T21:47:03.023Z,5.87
2019-03-10T21:49:32.248Z,8.77
2019-03-10T21:52:01.503Z,11.93
2019-03-10T21:54:30.765Z,12.10
2019-03-10T21:57:00.030Z,10.00
2019-03-10T21:59:29.258Z,13.93
2019-03-10T22:01:58.443Z,12.47
2019-03-10T22:04:27.754Z,10.30
2019-03-10T22:06:57.006Z,9.90
2019-03-10T22:09:26.182Z,7.87
2019-03-10T22:11:55.333Z,2.40
2019-03-10T22:14:24.751Z,4.13
2019-03-10T22:16:53.972Z,3.83
2019-03-10T22:19:24.352Z,5.43
2019-03-10T22:21:53.520Z,4.00
2019-03-10T22:24:22.763Z,4.83
2019-03-10T22:26:51.942Z,5.73
2019-03-10T22:29:21.196Z,6.47
2019-03-10T22:31:50.437Z,11.97
2019-03-10T22:34:19.767Z,11.77
2019-03-10T22:36:48.943Z,7.90
2019-03-10T22:39:18.200Z,6.87
2019-03-10T22:41:47.371Z,5.93
2019-03-10T22:44:16.610Z,4.07
2019-03-10T22:46:45.851Z,3.90
2019-03-10T22:49:15.116Z,2.80
2019-03-10T22:51:44.342Z,4.93
2019-03-10T22:54:13.523Z,2.50
2019-03-10T22:56:42.764Z,2.63
2019-03-10T22:59:11.957Z,4.80
2019-03-10T23:01:41.186Z,6.30
2019-03-10T23:04:10.444Z,5.03
2019-03-10T23:06:39.621Z,3.50
2019-03-10T23:09:09.150Z,4.60
2019-03-10T23:11:38.375Z,3.70
2019-03-10T23:14:07.663Z,5.23
2019-03-10T23:16:36.844Z,6.60
2019-03-10T23:19:06.185Z,9.67
2019-03-10T23:21:35.418Z,9.30
2019-03-10T23:24:04.664Z,4.30
2019-03-10T23:26:33.992Z,5.33
2019-03-10T23:29:03.221Z,8.07
2019-03-10T23:31:32.478Z,7.57
2019-03-10T23:34:01.858Z,4.57
2019-03-10T23:36:31.255Z,5.10
2019-03-10T23:39:00.498Z,9.83
2019-03-10T23:41:29.683Z,7.27
2019-03-10T23:43:58.973Z,5.87
2019-03-10T23:46:28.301Z,8.03
2019-03-10T23:48:57.539Z,7.30
2019-03-10T23:51:26.814Z,8.47
2019-03-10T23:53:56.131Z,6.50
2019-03-10T23:56:25.383Z,7.63
2019-03-10T23:58:54.656Z,9.30
